Time;durP1;ratioP1;P1;durP2;ratioP2;P2;SDS_P1;SDS_P2;PMS_P1;PMS_P2;Temp;Humidity;BMP_temperature;BMP_pressure;BME280_temperature;BME280_humidity;BME280_pressure;Samples;Min_cycle;Max_cycle;Signal;HPM_P1;HPM_P2
2021/11/25 00:00:23;;;;;;;47.28;28.23;;;4.20;99.90;;;;;;4949621;29;20079;-81
2021/11/25 00:02:49;;;;;;;42.97;27.52;;;4.20;99.90;;;;;;4948223;29;20047;-82
2021/11/25 00:05:15;;;;;;;41.05;26.60;;;4.20;99.90;;;;;;4949117;29;20245;-82
2021/11/25 00:07:41;;;;;;;44.28;27.15;;;4.20;99.90;;;;;;4948859;29;20219;-82
2021/11/25 00:10:08;;;;;;;41.38;26.05;;;4.20;99.90;;;;;;4945227;29;20062;-82
2021/11/25 00:12:34;;;;;;;40.78;25.13;;;4.20;99.90;;;;;;4946108;29;20020;-82
2021/11/25 00:15:00;;;;;;;41.15;25.80;;;4.20;99.90;;;;;;4944423;29;20090;-82
2021/11/25 00:17:25;;;;;;;41.70;26.45;;;4.10;99.90;;;;;;4946615;29;20114;-82
2021/11/25 00:19:51;;;;;;;40.38;25.48;;;4.10;99.90;;;;;;4945937;29;20019;-81
2021/11/25 00:22:17;;;;;;;40.45;25.88;;;4.00;99.90;;;;;;4946673;29;20398;-82
2021/11/25 00:24:43;;;;;;;41.65;27.70;;;4.10;99.90;;;;;;4946280;29;20211;-82
2021/11/25 00:27:09;;;;;;;42.80;26.02;;;4.10;99.90;;;;;;4944412;29;20019;-82
2021/11/25 00:29:37;;;;;;;45.45;26.83;;;4.10;99.90;;;;;;4946566;29;20038;-82
2021/11/25 00:32:04;;;;;;;41.35;27.23;;;4.10;99.90;;;;;;4946827;29;20362;-82
2021/11/25 00:34:29;;;;;;;48.53;28.60;;;4.20;99.90;;;;;;4946383;29;20059;-82
2021/11/25 00:36:55;;;;;;;47.28;28.63;;;4.20;99.90;;;;;;4945990;29;20036;-81
2021/11/25 00:39:21;;;;;;;41.90;26.73;;;4.20;99.90;;;;;;4946801;29;20024;-81
2021/11/25 00:41:47;;;;;;;40.97;26.67;;;4.20;99.90;;;;;;4944924;29;20031;-81
2021/11/25 00:44:14;;;;;;;48.35;28.77;;;4.20;99.90;;;;;;4945968;29;20208;-83
2021/11/25 00:46:40;;;;;;;42.78;27.13;;;4.20;99.90;;;;;;4946174;29;20027;-83
2021/11/25 00:49:06;;;;;;;42.78;27.75;;;4.20;99.90;;;;;;4945347;29;20087;-83
2021/11/25 00:51:32;;;;;;;45.35;27.65;;;4.20;99.90;;;;;;4945372;29;20032;-83
2021/11/25 00:53:57;;;;;;;43.35;26.80;;;4.20;99.90;;;;;;4944091;29;20038;-84
2021/11/25 00:56:23;;;;;;;41.05;26.67;;;4.20;99.90;;;;;;4944929;29;20279;-84
2021/11/25 00:58:49;;;;;;;45.35;28.52;;;4.20;99.90;;;;;;4945890;29;20311;-83
2021/11/25 01:01:15;;;;;;;43.90;28.85;;;4.30;99.90;;;;;;4945434;29;20023;-83
2021/11/25 01:03:41;;;;;;;44.15;27.13;;;4.30;99.90;;;;;;4945713;29;20055;-84
2021/11/25 01:06:07;;;;;;;42.03;28.20;;;4.30;99.90;;;;;;4946066;29;20245;-83
2021/11/25 01:08:33;;;;;;;42.70;26.98;;;4.30;99.90;;;;;;4946231;29;20330;-84
2021/11/25 01:10:59;;;;;;;46.38;27.92;;;4.40;99.90;;;;;;4946095;29;20027;-84
2021/11/25 01:13:25;;;;;;;42.05;27.20;;;4.30;99.90;;;;;;4945826;29;20024;-84
2021/11/25 01:15:50;;;;;;;45.58;27.77;;;4.30;99.90;;;;;;4945676;29;20031;-84
2021/11/25 01:18:18;;;;;;;41.47;26.77;;;4.40;99.90;;;;;;4942936;29;20094;-84
2021/11/25 01:20:45;;;;;;;41.20;27.15;;;4.40;99.90;;;;;;4945603;29;20031;-83
2021/11/25 01:23:22;;;;;;;46.60;27.02;;;4.40;99.90;;;;;;4945275;29;20308;-84
2021/11/25 01:25:48;;;;;;;41.15;25.90;;;4.30;99.90;;;;;;4945668;29;20244;-83
2021/11/25 01:28:14;;;;;;;43.97;27.90;;;4.20;99.90;;;;;;4945587;29;20051;-83
2021/11/25 01:30:48;;;;;;;41.50;26.85;;;4.20;99.90;;;;;;4944358;29;20223;-83
2021/11/25 01:33:16;;;;;;;42.90;26.88;;;4.10;99.90;;;;;;4945764;29;20023;-81
2021/11/25 01:35:42;;;;;;;43.10;27.08;;;4.10;99.90;;;;;;4945279;29;20032;-82
2021/11/25 01:38:09;;;;;;;43.03;27.02;;;4.20;99.90;;;;;;4942108;29;20079;-81
2021/11/25 01:40:36;;;;;;;41.35;26.63;;;4.20;99.90;;;;;;4944071;29;20027;-83
2021/11/25 01:43:03;;;;;;;41.25;25.05;;;4.20;99.90;;;;;;4945286;29;20042;-84
2021/11/25 01:45:29;;;;;;;39.80;25.92;;;4.30;99.90;;;;;;4944865;29;20056;-83
2021/11/25 01:47:57;;;;;;;42.70;25.45;;;4.30;99.90;;;;;;4945049;29;20034;-83
2021/11/25 01:50:24;;;;;;;41.10;26.63;;;4.20;99.90;;;;;;4944799;29;20604;-83
2021/11/25 01:52:50;;;;;;;40.75;26.98;;;4.10;99.90;;;;;;4943570;29;20027;-83
2021/11/25 01:55:19;;;;;;;42.90;26.35;;;4.10;99.90;;;;;;4944748;29;20031;-83
2021/11/25 01:57:47;;;;;;;45.35;27.17;;;4.00;99.90;;;;;;4945115;29;20215;-83
2021/11/25 02:00:20;;;;;;;42.45;26.90;;;4.00;99.90;;;;;;4942024;29;20078;-83
2021/11/25 02:02:46;;;;;;;43.72;26.73;;;4.00;99.90;;;;;;4943174;29;20042;-83
2021/11/25 02:05:13;;;;;;;41.00;27.10;;;4.00;99.90;;;;;;4945236;29;20026;-83
2021/11/25 02:07:39;;;;;;;40.85;26.20;;;3.90;99.90;;;;;;4943782;29;20019;-83
2021/11/25 02:10:06;;;;;;;43.63;27.48;;;3.90;99.90;;;;;;4945033;29;20173;-83
2021/11/25 02:12:32;;;;;;;50.17;28.42;;;3.90;99.90;;;;;;4944896;29;20054;-83
2021/11/25 02:14:58;;;;;;;43.28;27.60;;;3.90;99.90;;;;;;4945096;29;20311;-83
2021/11/25 02:17:24;;;;;;;48.72;28.67;;;4.00;99.90;;;;;;4942657;29;20255;-83
2021/11/25 02:19:50;;;;;;;45.20;28.95;;;4.00;99.90;;;;;;4944655;29;20034;-83
2021/11/25 02:22:19;;;;;;;48.65;29.48;;;3.90;99.90;;;;;;4944742;29;20027;-84
2021/11/25 02:24:45;;;;;;;47.80;28.35;;;4.00;99.90;;;;;;4943288;29;20043;-83
2021/11/25 02:27:11;;;;;;;48.65;29.30;;;4.00;99.90;;;;;;4943716;29;20335;-83
2021/11/25 02:29:40;;;;;;;49.70;29.25;;;4.00;99.90;;;;;;4942985;29;20038;-83
2021/11/25 02:32:06;;;;;;;47.70;28.73;;;4.10;99.90;;;;;;4944638;29;20032;-83
2021/11/25 02:34:32;;;;;;;44.83;27.67;;;4.10;99.90;;;;;;4944557;29;20078;-83
2021/11/25 02:36:57;;;;;;;45.58;29.10;;;4.10;99.90;;;;;;4944495;29;20031;-83
2021/11/25 02:39:23;;;;;;;46.80;28.75;;;4.10;99.90;;;;;;4943480;29;20047;-83
2021/11/25 02:41:49;;;;;;;45.50;29.15;;;4.20;99.90;;;;;;4944331;29;20308;-83
2021/11/25 02:44:15;;;;;;;46.67;29.75;;;4.20;99.90;;;;;;4944640;29;20026;-83
2021/11/25 02:46:40;;;;;;;48.25;29.30;;;4.10;99.90;;;;;;4943556;29;20307;-83
2021/11/25 02:49:06;;;;;;;46.40;28.95;;;4.10;99.90;;;;;;4944280;29;20067;-83
2021/11/25 02:51:32;;;;;;;46.20;29.40;;;4.20;99.90;;;;;;4944741;29;20019;-83
2021/11/25 02:53:59;;;;;;;50.53;30.50;;;4.20;99.90;;;;;;4944609;29;20036;-81
2021/11/25 02:56:28;;;;;;;46.30;28.50;;;4.20;99.90;;;;;;4944319;29;20091;-83
2021/11/25 02:58:55;;;;;;;46.90;28.05;;;4.20;99.90;;;;;;4944383;29;20047;-83
2021/11/25 03:01:23;;;;;;;43.38;27.98;;;4.20;99.90;;;;;;4944599;29;20218;-83
2021/11/25 03:03:52;;;;;;;46.13;28.92;;;4.30;99.90;;;;;;4944552;29;20087;-81
2021/11/25 03:06:19;;;;;;;46.20;28.15;;;4.30;99.90;;;;;;4944506;29;20047;-81
2021/11/25 03:08:46;;;;;;;45.20;28.60;;;4.30;99.90;;;;;;4943799;29;20466;-82
2021/11/25 03:11:14;;;;;;;43.53;27.30;;;4.40;99.90;;;;;;4941698;29;20289;-83
2021/11/25 03:13:44;;;;;;;44.15;27.10;;;4.40;99.90;;;;;;4944846;29;20027;-83
2021/11/25 03:16:11;;;;;;;49.75;29.73;;;4.30;99.90;;;;;;4941715;29;20094;-83
2021/11/25 03:18:38;;;;;;;44.58;27.85;;;4.30;99.90;;;;;;4941706;29;20079;-83
2021/11/25 03:21:04;;;;;;;47.97;28.13;;;4.30;99.90;;;;;;4944060;29;20333;-81
2021/11/25 03:23:32;;;;;;;51.60;29.27;;;4.40;99.90;;;;;;4944123;29;20043;-83
2021/11/25 03:26:00;;;;;;;45.47;28.85;;;4.40;99.90;;;;;;4943469;29;20024;-83
2021/11/25 03:28:26;;;;;;;48.92;27.67;;;4.30;99.90;;;;;;4940527;29;20279;-83
2021/11/25 03:30:56;;;;;;;43.85;26.70;;;4.30;99.90;;;;;;4942413;29;20031;-83
2021/11/25 03:33:27;;;;;;;44.33;28.45;;;4.20;99.90;;;;;;4944287;29;20024;-83
2021/11/25 03:35:54;;;;;;;46.28;28.40;;;4.20;99.90;;;;;;4943803;29;20058;-83
2021/11/25 03:38:20;;;;;;;42.42;26.92;;;4.20;99.90;;;;;;4943733;29;20087;-82
2021/11/25 03:40:46;;;;;;;45.22;27.42;;;4.10;99.90;;;;;;4943235;29;20040;-83
2021/11/25 03:43:12;;;;;;;44.42;27.05;;;4.10;99.90;;;;;;4943563;29;20028;-83
2021/11/25 03:45:38;;;;;;;42.75;26.98;;;4.20;99.90;;;;;;4943882;29;20260;-83
2021/11/25 03:48:04;;;;;;;45.55;28.25;;;4.20;99.90;;;;;;4944518;29;20043;-83
2021/11/25 03:50:30;;;;;;;45.80;28.38;;;4.20;99.90;;;;;;4946994;29;20031;-83
2021/11/25 03:52:55;;;;;;;47.42;28.75;;;4.20;99.90;;;;;;4947306;29;20030;-83
2021/11/25 03:55:21;;;;;;;45.90;28.20;;;4.20;99.90;;;;;;4947313;29;20024;-83
2021/11/25 03:57:48;;;;;;;42.38;27.98;;;4.30;99.90;;;;;;4946961;29;20036;-84
2021/11/25 04:00:18;;;;;;;43.03;28.20;;;4.20;99.90;;;;;;4947235;29;20078;-83
2021/11/25 04:02:46;;;;;;;45.78;27.73;;;4.20;99.90;;;;;;4947535;29;20019;-83
2021/11/25 04:05:12;;;;;;;43.13;27.67;;;4.20;99.90;;;;;;4947429;29;20023;-83
2021/11/25 04:07:38;;;;;;;45.05;28.27;;;4.20;99.90;;;;;;4947564;29;20023;-83
2021/11/25 04:10:06;;;;;;;42.97;26.48;;;4.20;99.90;;;;;;4947190;29;20098;-84
2021/11/25 04:12:32;;;;;;;41.72;26.83;;;4.20;99.90;;;;;;4946312;29;20094;-83
2021/11/25 04:14:57;;;;;;;42.92;27.15;;;4.30;99.90;;;;;;4943100;29;20027;-83
2021/11/25 04:17:23;;;;;;;46.50;28.90;;;4.30;99.90;;;;;;4946438;29;20028;-83
2021/11/25 04:19:52;;;;;;;45.00;28.10;;;4.40;99.90;;;;;;4945844;29;20027;-83
2021/11/25 04:22:21;;;;;;;43.45;26.88;;;4.30;99.90;;;;;;4945327;29;20316;-83
2021/11/25 04:24:48;;;;;;;43.88;28.15;;;4.30;99.90;;;;;;4946011;29;20020;-84
2021/11/25 04:27:14;;;;;;;46.28;28.02;;;4.30;99.90;;;;;;4946078;29;20023;-83
2021/11/25 04:29:43;;;;;;;44.00;28.02;;;4.40;99.90;;;;;;4945978;29;20027;-83
2021/11/25 04:37:38;;;;;;;44.70;27.73;;;4.40;99.90;;;;;;4959153;29;20092;-83
2021/11/25 04:40:04;;;;;;;46.83;27.73;;;4.40;99.90;;;;;;4958928;29;20058;-83
2021/11/25 04:42:30;;;;;;;39.53;26.92;;;4.50;99.90;;;;;;4959205;29;20027;-84
2021/11/25 04:44:56;;;;;;;40.92;27.50;;;4.50;99.90;;;;;;4958963;29;20098;-83
2021/11/25 04:47:22;;;;;;;44.40;27.00;;;4.50;99.90;;;;;;4953197;29;20024;-83
2021/11/25 04:49:48;;;;;;;40.55;26.83;;;4.50;99.90;;;;;;4957105;29;20083;-83
2021/11/25 04:52:14;;;;;;;45.92;28.50;;;4.50;99.90;;;;;;4957458;29;20016;-84
2021/11/25 04:54:39;;;;;;;39.53;27.10;;;4.50;99.90;;;;;;4957716;29;20067;-84
2021/11/25 04:57:06;;;;;;;41.38;26.25;;;4.60;99.90;;;;;;4956958;29;20040;-83
2021/11/25 04:59:31;;;;;;;42.45;27.75;;;4.60;99.90;;;;;;4957010;29;20038;-83
2021/11/25 05:01:57;;;;;;;42.63;27.13;;;4.50;99.90;;;;;;4956182;29;20051;-83
2021/11/25 05:04:23;;;;;;;41.40;25.88;;;4.50;99.90;;;;;;4956497;29;20028;-84
2021/11/25 05:06:48;;;;;;;42.00;26.27;;;4.50;99.90;;;;;;4949746;29;20345;-83
2021/11/25 05:09:15;;;;;;;36.90;25.63;;;4.50;99.90;;;;;;4956909;29;20027;-82
2021/11/25 05:11:41;;;;;;;41.03;26.20;;;4.50;99.90;;;;;;4956471;29;20027;-82
2021/11/25 05:14:06;;;;;;;39.05;26.10;;;4.50;99.90;;;;;;4956788;29;20042;-84
2021/11/25 05:16:32;;;;;;;40.80;25.73;;;4.60;99.90;;;;;;4952354;29;20045;-83
2021/11/25 05:18:59;;;;;;;39.33;25.73;;;4.60;99.90;;;;;;4946189;29;20018;-83
2021/11/25 05:21:25;;;;;;;38.58;25.45;;;4.50;99.90;;;;;;4946127;29;20031;-83
2021/11/25 05:23:50;;;;;;;40.88;25.67;;;4.50;99.90;;;;;;4945687;29;20020;-83
2021/11/25 05:26:16;;;;;;;42.42;26.40;;;4.50;99.90;;;;;;4946039;29;20074;-84
2021/11/25 05:28:42;;;;;;;38.65;25.17;;;4.50;99.90;;;;;;4945183;29;20048;-83
2021/11/25 05:31:08;;;;;;;35.20;24.33;;;4.50;99.90;;;;;;4934989;29;20035;-83
2021/11/25 05:33:34;;;;;;;37.63;24.88;;;4.50;99.90;;;;;;4935209;29;20183;-83
2021/11/25 05:36:00;;;;;;;37.38;24.63;;;4.60;99.90;;;;;;4937524;29;20032;-83
2021/11/25 05:38:25;;;;;;;36.63;24.17;;;4.60;99.90;;;;;;4936781;29;20039;-83
2021/11/25 05:40:51;;;;;;;38.58;25.20;;;4.60;99.90;;;;;;4936224;29;20087;-83
2021/11/25 05:43:17;;;;;;;43.05;24.70;;;4.60;99.90;;;;;;4937318;29;20024;-83
2021/11/25 05:45:43;;;;;;;34.75;22.45;;;4.60;99.90;;;;;;4934542;29;20460;-83
2021/11/25 05:48:09;;;;;;;37.70;23.92;;;4.60;99.90;;;;;;4934396;29;20020;-84
2021/11/25 05:50:34;;;;;;;36.65;23.17;;;4.60;99.90;;;;;;4934262;29;20016;-83
2021/11/25 05:53:00;;;;;;;34.67;23.88;;;4.70;99.90;;;;;;4933805;29;20028;-83
2021/11/25 05:55:29;;;;;;;33.60;23.08;;;4.80;99.90;;;;;;4933717;29;20032;-83
2021/11/25 05:57:56;;;;;;;34.42;21.88;;;4.80;99.90;;;;;;4933855;29;20039;-84
2021/11/25 06:00:22;;;;;;;31.75;22.55;;;4.90;99.90;;;;;;4932496;29;20043;-84
2021/11/25 06:02:48;;;;;;;30.90;22.48;;;4.80;99.90;;;;;;4934240;29;20437;-83
2021/11/25 06:05:16;;;;;;;34.17;22.80;;;4.80;99.90;;;;;;4934329;29;20028;-83
2021/11/25 06:07:46;;;;;;;31.70;21.90;;;4.90;99.90;;;;;;4934464;29;20043;-83
2021/11/25 06:10:14;;;;;;;32.67;22.33;;;4.90;99.90;;;;;;4933587;29;20095;-83
2021/11/25 06:12:40;;;;;;;35.65;22.85;;;4.90;99.90;;;;;;4934450;29;20020;-84
2021/11/25 06:15:07;;;;;;;33.08;23.58;;;4.90;99.90;;;;;;4934114;29;20444;-84
2021/11/25 06:17:33;;;;;;;35.58;22.88;;;4.90;99.90;;;;;;4932743;29;20028;-84
2021/11/25 06:19:58;;;;;;;34.05;23.40;;;4.90;99.90;;;;;;4934027;29;20091;-84
2021/11/25 06:22:24;;;;;;;34.08;23.80;;;4.90;99.90;;;;;;4934223;29;20453;-83
2021/11/25 06:24:51;;;;;;;32.55;24.05;;;4.90;99.90;;;;;;4935796;29;20020;-84
2021/11/25 06:27:17;;;;;;;33.13;22.98;;;4.90;99.90;;;;;;4934310;29;20381;-83
2021/11/25 06:29:42;;;;;;;32.35;22.92;;;4.90;99.90;;;;;;4933841;29;20027;-88
2021/11/25 06:32:09;;;;;;;33.47;22.88;;;5.00;99.90;;;;;;4915485;29;20393;-87
2021/11/25 06:34:35;;;;;;;33.35;23.25;;;4.90;99.90;;;;;;4933591;29;20024;-87
2021/11/25 06:37:00;;;;;;;32.10;22.83;;;4.90;99.90;;;;;;4933328;29;20046;-88
2021/11/25 06:39:27;;;;;;;32.28;23.15;;;4.90;99.90;;;;;;4933050;29;20031;-89
2021/11/25 06:41:53;;;;;;;29.30;21.88;;;4.90;99.90;;;;;;4933828;29;20086;-89
2021/11/25 06:44:18;;;;;;;33.85;22.75;;;4.90;99.90;;;;;;4934219;29;20024;-89
2021/11/25 06:46:44;;;;;;;36.55;24.15;;;4.90;99.90;;;;;;4933887;29;20039;-88
2021/11/25 06:49:10;;;;;;;35.42;23.98;;;5.00;99.90;;;;;;4932378;29;20039;-89
2021/11/25 06:51:36;;;;;;;33.42;23.58;;;4.90;99.90;;;;;;4933553;29;20038;-89
2021/11/25 06:54:01;;;;;;;32.47;23.15;;;5.00;99.90;;;;;;4933300;29;20219;-89
2021/11/25 06:56:29;;;;;;;31.58;21.05;;;4.90;99.90;;;;;;4931721;29;20416;-89
2021/11/25 06:58:56;;;;;;;33.40;23.27;;;4.90;99.90;;;;;;4932154;29;20496;-89
2021/11/25 07:01:23;;;;;;;29.92;21.33;;;4.90;99.90;;;;;;4933869;29;20062;-89
2021/11/25 07:03:49;;;;;;;32.20;21.40;;;4.90;99.90;;;;;;4932403;29;20035;-89
2021/11/25 07:06:15;;;;;;;31.67;21.42;;;4.90;99.90;;;;;;4932702;29;20027;-89
2021/11/25 07:08:41;;;;;;;29.05;20.80;;;4.90;99.90;;;;;;4932441;29;20028;-89
2021/11/25 07:11:06;;;;;;;35.22;22.30;;;4.90;99.90;;;;;;4932473;29;20031;-89
2021/11/25 07:13:32;;;;;;;31.70;21.05;;;4.90;99.90;;;;;;4932488;29;20031;-89
2021/11/25 07:15:59;;;;;;;32.90;22.08;;;5.00;99.90;;;;;;4932283;29;20051;-89
2021/11/25 07:18:25;;;;;;;32.13;21.67;;;5.00;99.90;;;;;;4932361;29;20028;-88
2021/11/25 07:20:51;;;;;;;31.73;22.48;;;4.90;99.90;;;;;;4932507;29;20023;-89
2021/11/25 07:23:17;;;;;;;32.72;22.77;;;4.90;99.90;;;;;;4936492;29;20027;-89
2021/11/25 07:25:42;;;;;;;34.10;22.52;;;4.90;99.90;;;;;;4935787;29;20500;-89
2021/11/25 07:28:08;;;;;;;30.85;22.70;;;4.90;99.90;;;;;;4936440;29;20118;-89
2021/11/25 07:30:34;;;;;;;31.50;22.92;;;5.00;99.90;;;;;;4937468;29;20039;-89
2021/11/25 07:33:01;;;;;;;31.95;22.88;;;5.00;99.90;;;;;;4937484;29;20079;-89
2021/11/25 07:35:27;;;;;;;30.92;22.77;;;4.90;99.90;;;;;;4936982;29;20030;-89
2021/11/25 07:37:54;;;;;;;35.67;24.45;;;4.90;99.90;;;;;;4935128;29;20130;-90
2021/11/25 07:40:22;;;;;;;34.78;24.15;;;4.90;99.90;;;;;;4937305;29;20323;-89
2021/11/25 07:42:48;;;;;;;35.00;23.95;;;4.90;99.90;;;;;;4935648;29;20038;-89
2021/11/25 07:45:14;;;;;;;31.50;22.80;;;5.00;99.90;;;;;;4935232;29;20510;-89
2021/11/25 07:47:40;;;;;;;31.58;22.02;;;5.00;99.90;;;;;;4937226;29;20373;-89
2021/11/25 07:50:14;;;;;;;33.72;24.40;;;5.00;99.90;;;;;;4937087;29;20035;-89
2021/11/25 07:52:40;;;;;;;;;;;5.00;99.90;;;;;;4937616;29;20031;-89
2021/11/25 07:55:08;;;;;;;35.53;23.70;;;5.00;99.90;;;;;;4936777;29;19903;-89
2021/11/25 07:57:35;;;;;;;36.55;23.40;;;5.10;99.90;;;;;;4936287;29;20047;-89
2021/11/25 08:00:03;;;;;;;35.53;24.15;;;5.10;99.90;;;;;;4935277;29;20038;-89
2021/11/25 08:02:31;;;;;;;36.35;23.50;;;5.10;99.90;;;;;;4935891;29;20118;-89
2021/11/25 08:04:57;;;;;;;36.63;23.63;;;5.20;99.90;;;;;;4936620;29;20036;-89
2021/11/25 08:07:23;;;;;;;32.95;22.70;;;5.20;99.90;;;;;;4936341;29;20034;-89
2021/11/25 08:09:48;;;;;;;32.58;22.90;;;5.20;99.90;;;;;;4935121;29;20035;-89
2021/11/25 08:12:14;;;;;;;32.45;22.20;;;5.30;99.90;;;;;;4935373;29;20118;-88
2021/11/25 08:14:40;;;;;;;30.58;21.80;;;5.20;99.90;;;;;;4935053;29;20038;-88
2021/11/25 08:17:08;;;;;;;27.30;21.00;;;5.30;99.90;;;;;;4936932;29;20075;-89
2021/11/25 08:19:34;;;;;;;33.30;21.92;;;5.30;99.90;;;;;;4936367;29;20102;-89
2021/11/25 08:22:00;;;;;;;28.85;21.33;;;5.40;99.90;;;;;;4935039;29;20731;-89
2021/11/25 08:24:25;;;;;;;31.60;21.73;;;5.30;99.90;;;;;;4936200;29;20019;-89
2021/11/25 08:26:52;;;;;;;29.15;21.48;;;5.40;99.90;;;;;;4934661;29;20031;-88
2021/11/25 08:29:18;;;;;;;30.58;21.80;;;5.40;99.90;;;;;;4934661;29;20057;-88
2021/11/25 08:31:44;;;;;;;30.52;21.55;;;5.50;99.90;;;;;;4934777;29;20036;-89
2021/11/25 08:34:09;;;;;;;33.28;22.42;;;5.50;99.90;;;;;;4933961;29;20106;-89
2021/11/25 08:36:35;;;;;;;29.73;22.30;;;5.50;99.90;;;;;;4934727;29;20031;-89
2021/11/25 08:39:01;;;;;;;30.77;21.17;;;5.50;99.90;;;;;;4934688;29;20035;-89
2021/11/25 08:41:26;;;;;;;33.65;21.08;;;5.60;99.90;;;;;;4936105;29;20441;-89
2021/11/25 08:43:52;;;;;;;29.80;21.30;;;5.60;99.90;;;;;;4936127;29;20031;-89
2021/11/25 08:46:19;;;;;;;28.00;20.60;;;5.60;99.90;;;;;;4935328;29;20055;-89
2021/11/25 08:48:44;;;;;;;29.35;21.30;;;5.70;99.90;;;;;;4933849;29;20028;-89
2021/11/25 08:51:11;;;;;;;32.78;20.38;;;5.80;99.90;;;;;;4933729;29;20083;-89
2021/11/25 08:53:37;;;;;;;26.98;19.90;;;5.80;99.90;;;;;;4933881;29;20742;-89
2021/11/25 08:56:05;;;;;;;25.67;20.08;;;5.90;99.90;;;;;;4934972;29;20524;-89
2021/11/25 08:58:31;;;;;;;26.88;19.33;;;6.00;99.90;;;;;;4933760;29;20552;-89
2021/11/25 09:00:57;;;;;;;26.08;18.42;;;6.10;99.90;;;;;;4934123;29;20036;-89
2021/11/25 09:03:22;;;;;;;25.90;18.63;;;6.20;99.90;;;;;;4934357;29;20232;-89
2021/11/25 09:05:48;;;;;;;26.65;18.23;;;6.20;99.90;;;;;;4934085;29;20087;-89
2021/11/25 09:08:14;;;;;;;25.23;17.80;;;6.20;99.90;;;;;;4933943;29;20034;-88
2021/11/25 09:10:40;;;;;;;25.95;17.17;;;6.20;99.90;;;;;;4933856;29;20106;-88
2021/11/25 09:13:07;;;;;;;24.83;17.85;;;6.30;99.90;;;;;;4935033;29;20024;-89
2021/11/25 09:15:33;;;;;;;27.08;17.55;;;6.40;99.90;;;;;;4933657;29;20039;-89
2021/11/25 09:18:02;;;;;;;23.40;17.10;;;6.40;99.90;;;;;;4934217;29;20047;-89
2021/11/25 09:20:31;;;;;;;25.85;17.67;;;6.30;99.90;;;;;;4934068;29;20531;-89
2021/11/25 09:22:58;;;;;;;23.30;16.58;;;6.40;99.90;;;;;;4933856;29;20122;-88
2021/11/25 09:25:23;;;;;;;25.05;17.52;;;6.30;99.90;;;;;;4934990;29;20059;-88
2021/11/25 09:27:49;;;;;;;25.92;18.00;;;6.40;99.90;;;;;;4933827;29;20077;-89
2021/11/25 09:30:15;;;;;;;24.58;16.95;;;6.50;99.90;;;;;;4933690;29;20024;-89
2021/11/25 09:32:42;;;;;;;25.02;18.23;;;6.40;99.90;;;;;;4933164;29;20039;-89
2021/11/25 09:35:08;;;;;;;24.83;17.15;;;6.50;99.90;;;;;;4934291;29;20103;-89
2021/11/25 09:37:34;;;;;;;24.20;17.58;;;6.50;99.90;;;;;;4933152;29;20023;-89
2021/11/25 09:40:00;;;;;;;26.27;17.55;;;6.50;99.90;;;;;;4934299;29;20058;-89
2021/11/25 09:42:26;;;;;;;25.30;17.33;;;6.40;99.90;;;;;;4932902;29;20034;-89
2021/11/25 09:44:52;;;;;;;22.13;16.77;;;6.40;99.90;;;;;;4932893;29;20032;-89
2021/11/25 09:47:18;;;;;;;24.55;17.13;;;6.40;99.90;;;;;;4932743;29;20032;-88
2021/11/25 09:49:44;;;;;;;23.02;17.38;;;6.40;99.90;;;;;;4932815;29;20028;-88
2021/11/25 09:52:11;;;;;;;26.48;17.00;;;6.40;99.90;;;;;;4932875;29;20028;-89
2021/11/25 09:54:36;;;;;;;24.73;17.25;;;6.30;99.90;;;;;;4932642;29;20035;-87
2021/11/25 09:57:02;;;;;;;26.67;18.48;;;6.40;99.90;;;;;;4933667;29;20059;-89
2021/11/25 09:59:28;;;;;;;24.10;16.88;;;6.50;99.90;;;;;;4933788;29;20428;-89
2021/11/25 10:01:54;;;;;;;24.42;17.05;;;6.50;99.90;;;;;;4933128;29;20616;-89
2021/11/25 10:04:20;;;;;;;26.98;17.52;;;6.50;99.90;;;;;;4933224;29;20059;-89
2021/11/25 10:06:54;;;;;;;21.67;16.20;;;6.60;99.90;;;;;;4932983;29;20039;-89
2021/11/25 10:09:38;;;;;;;25.27;17.67;;;6.60;99.90;;;;;;4936702;29;20035;-90
2021/11/25 10:12:32;;;;;;;26.50;17.90;;;6.60;99.90;;;;;;4932971;29;20031;-88
2021/11/25 10:15:00;;;;;;;24.42;17.80;;;6.40;99.90;;;;;;4930116;29;20050;-88
2021/11/25 10:17:46;;;;;;;22.88;17.60;;;6.50;99.90;;;;;;4932133;29;20479;-90
2021/11/25 10:20:15;;;;;;;21.48;16.55;;;6.40;99.90;;;;;;4932092;29;20027;-89
2021/11/25 10:23:01;;;;;;;22.15;16.55;;;6.50;99.90;;;;;;4932259;29;20031;-89
2021/11/25 10:25:57;;;;;;;25.92;17.70;;;6.50;99.90;;;;;;4932094;29;20413;-90
2021/11/25 10:28:36;;;;;;;26.63;19.00;;;6.50;99.90;;;;;;4932016;29;20087;-90
2021/11/25 10:31:07;;;;;;;27.55;17.85;;;6.50;99.90;;;;;;4931933;29;20114;-89
2021/11/25 10:33:54;;;;;;;27.90;18.52;;;6.50;99.90;;;;;;4932061;29;20034;-89
2021/11/25 10:39:04;;;;;;;25.08;17.70;;;6.60;99.90;;;;;;4933067;29;20024;-89
2021/11/25 10:41:31;;;;;;;28.52;18.73;;;6.70;99.90;;;;;;4933409;29;20024;-89
2021/11/25 10:44:09;;;;;;;24.08;17.17;;;6.80;99.90;;;;;;4932335;29;20028;-89
2021/11/25 10:46:40;;;;;;;22.27;15.73;;;6.90;99.90;;;;;;4932290;29;20095;-89
2021/11/25 10:49:06;;;;;;;26.17;17.13;;;6.90;99.90;;;;;;4932180;29;20027;-89
2021/11/25 10:51:35;;;;;;;23.13;15.77;;;6.90;99.90;;;;;;4931995;29;20063;-90
2021/11/25 10:54:05;;;;;;;29.35;15.60;;;7.00;99.90;;;;;;4931926;29;20031;-89
2021/11/25 10:56:35;;;;;;;22.63;16.05;;;6.90;99.90;;;;;;4932534;29;20131;-88
2021/11/25 10:59:01;;;;;;;24.05;17.10;;;6.90;99.90;;;;;;4931976;29;20251;-89
2021/11/25 11:01:38;;;;;;;22.90;17.00;;;6.90;99.90;;;;;;4932352;29;20685;-89
2021/11/25 11:04:05;;;;;;;23.75;16.65;;;6.80;99.90;;;;;;4933436;29;20034;-89
2021/11/25 11:06:37;;;;;;;22.85;16.45;;;6.90;99.90;;;;;;4932129;29;20035;-89
2021/11/25 11:09:08;;;;;;;26.25;17.48;;;7.00;99.90;;;;;;4932255;29;20028;-89
2021/11/25 11:11:37;;;;;;;24.08;17.20;;;6.90;99.90;;;;;;4933365;29;20090;-89
2021/11/25 11:17:15;;;;;;;23.60;16.88;;;6.80;99.90;;;;;;4932286;29;20441;-89
2021/11/25 11:19:28;;;;;;;23.38;16.15;;;6.80;99.90;;;;;;4932518;29;20023;-88
2021/11/25 11:21:55;;;;;;;23.73;16.80;;;6.80;99.90;;;;;;4931994;29;20460;-89
2021/11/25 11:24:27;;;;;;;24.77;17.90;;;6.80;99.90;;;;;;4931848;29;20028;-89
2021/11/25 11:26:59;;;;;;;22.15;16.15;;;6.80;99.90;;;;;;4930988;29;20504;-89
2021/11/25 11:29:30;;;;;;;24.17;17.15;;;6.80;99.90;;;;;;4912709;29;20025;-89
2021/11/25 11:31:59;;;;;;;24.55;15.57;;;6.90;99.90;;;;;;4914275;29;20032;-89
2021/11/25 11:34:26;;;;;;;22.90;15.27;;;6.90;99.90;;;;;;4914083;29;20032;-89
2021/11/25 11:36:54;;;;;;;21.67;16.50;;;6.90;99.90;;;;;;4921449;29;20028;-89
2021/11/25 11:39:25;;;;;;;23.15;15.63;;;6.90;99.90;;;;;;4931765;29;20040;-89
2021/11/25 11:41:54;;;;;;;24.98;16.23;;;7.00;99.90;;;;;;4933238;29;20046;-89
2021/11/25 11:44:22;;;;;;;19.77;14.95;;;7.00;99.90;;;;;;4933269;29;20024;-89
2021/11/25 11:46:51;;;;;;;19.55;14.00;;;7.10;99.90;;;;;;4932784;29;20144;-89
2021/11/25 11:49:21;;;;;;;22.75;14.73;;;7.20;99.90;;;;;;4932682;29;20413;-89
2021/11/25 11:52:06;;;;;;;20.23;14.10;;;7.20;99.90;;;;;;4931148;29;20396;-89
2021/11/25 11:55:00;;;;;;;21.80;13.82;;;7.30;99.90;;;;;;4931545;29;20031;-89
2021/11/25 11:57:43;;;;;;;22.17;14.43;;;7.30;99.90;;;;;;4931032;29;20159;-88
2021/11/25 12:00:18;;;;;;;22.83;13.98;;;7.20;99.90;;;;;;4935259;29;20107;-89
2021/11/25 12:02:52;;;;;;;21.20;13.95;;;7.30;99.90;;;;;;4931768;29;20215;-89
2021/11/25 12:05:39;;;;;;;18.92;14.15;;;7.30;99.90;;;;;;4932747;29;20024;-88
2021/11/25 12:08:19;;;;;;;19.20;14.13;;;7.30;99.90;;;;;;4931819;29;20099;-89
2021/11/25 12:11:04;;;;;;;21.35;14.10;;;7.20;99.90;;;;;;4934792;29;20066;-89
2021/11/25 12:13:38;;;;;;;21.25;13.30;;;7.20;99.90;;;;;;4935124;29;20090;-89
2021/11/25 12:16:16;;;;;;;20.40;13.45;;;7.20;99.90;;;;;;4935146;29;20363;-89
2021/11/25 12:18:43;;;;;;;20.38;13.75;;;7.20;99.90;;;;;;4934441;29;20107;-88
2021/11/25 12:21:09;;;;;;;18.02;12.85;;;7.20;99.90;;;;;;4936012;29;20047;-88
2021/11/25 12:23:37;;;;;;;18.60;13.60;;;7.20;99.90;;;;;;4934388;29;20200;-89
2021/11/25 12:26:04;;;;;;;17.83;13.30;;;7.20;99.90;;;;;;4934466;29;20031;-89
2021/11/25 12:28:35;;;;;;;17.65;13.30;;;7.30;99.90;;;;;;4935518;29;20067;-89
2021/11/25 12:31:20;;;;;;;19.55;12.10;;;7.30;99.90;;;;;;4934340;29;20030;-89
2021/11/25 12:33:50;;;;;;;17.40;12.55;;;7.30;99.90;;;;;;4934356;29;20046;-89
2021/11/25 12:36:37;;;;;;;19.33;12.90;;;7.30;99.90;;;;;;4934234;29;20062;-89
2021/11/25 12:39:06;;;;;;;16.15;12.30;;;7.30;99.90;;;;;;4934282;29;20027;-89
2021/11/25 12:41:34;;;;;;;18.55;12.57;;;7.20;99.90;;;;;;4934038;29;20035;-89
2021/11/25 12:44:00;;;;;;;19.65;13.60;;;7.30;99.90;;;;;;4934004;29;20028;-89
2021/11/25 12:46:26;;;;;;;19.00;13.25;;;7.30;99.90;;;;;;4934058;29;20515;-89
2021/11/25 12:48:55;;;;;;;18.15;12.43;;;7.40;99.90;;;;;;4934174;29;20023;-89
2021/11/25 12:51:28;;;;;;;17.63;13.18;;;7.40;99.90;;;;;;4934168;29;20400;-89